Time;durP1;ratioP1;P1;durP2;ratioP2;P2;SDS_P1;SDS_P2;PMS_P1;PMS_P2;Temp;Humidity;BMP_temperature;BMP_pressure;BME280_temperature;BME280_humidity;BME280_pressure;Samples;Min_cycle;Max_cycle;Signal;HPM_P1;HPM_P2
2022/03/03 00:00:54;;;;;;;;;;;2.50;99.90;;;0.70;63.42;101650.13;2567873;30;137113;-41
2022/03/03 00:03:21;;;;;;;;;;;2.40;99.90;;;0.59;64.70;101660.91;2570054;30;137028;-41
2022/03/03 00:05:49;;;;;;;;;;;2.30;99.90;;;0.43;65.47;101658.63;2566930;30;136726;-40
2022/03/03 00:08:16;;;;;;;;;;;2.20;99.90;;;0.31;65.74;101663.16;2568456;30;138181;-41
2022/03/03 00:10:44;;;;;;;;;;;2.10;99.90;;;0.17;65.98;101666.09;2568445;30;138046;-41
2022/03/03 00:13:11;;;;;;;;;;;2.00;99.90;;;0.04;66.50;101663.53;2567891;30;138353;-41
2022/03/03 00:15:38;;;;;;;;;;;1.80;99.90;;;-0.10;67.23;101659.28;2568812;30;137292;-41
2022/03/03 00:18:05;;;;;;;;;;;1.70;99.90;;;-0.21;68.35;101655.63;2568233;30;139003;-40
2022/03/03 00:20:33;;;;;;;;;;;1.60;99.90;;;-0.29;68.46;101652.66;2567527;30;137567;-40
2022/03/03 00:23:00;;;;;;;;;;;1.50;99.90;;;-0.37;68.78;101655.97;2568854;30;139084;-40
2022/03/03 00:25:28;;;;;;;;;;;1.40;99.90;;;-0.40;68.57;101658.88;2569445;30;137045;-40
2022/03/03 00:27:55;;;;;;;;;;;1.40;99.90;;;-0.45;69.37;101655.69;2567069;30;137442;-41
2022/03/03 00:30:22;;;;;;;;;;;1.30;99.90;;;-0.54;70.07;101646.53;2567515;30;138035;-40
2022/03/03 00:32:50;;;;;;;;;;;1.20;99.90;;;-0.60;70.94;101647.91;2568748;30;137822;-41
2022/03/03 00:35:17;;;;;;;;;;;1.20;99.90;;;-0.66;70.63;101640.34;2568010;30;137532;-40
2022/03/03 00:37:45;;;;;;;;;;;1.10;99.90;;;-0.68;70.69;101642.25;2567066;30;138362;-40
2022/03/03 00:40:12;;;;;;;;;;;1.10;99.90;;;-0.71;70.66;101642.50;2567713;30;137766;-40
2022/03/03 00:42:40;;;;;;;;;;;1.00;99.90;;;-0.78;71.25;101633.22;2568683;30;137492;-40
2022/03/03 00:45:08;;;;;;;;;;;1.00;99.90;;;-0.85;71.77;101638.19;2566999;30;137416;-41
2022/03/03 00:47:35;;;;;;;;;;;0.90;99.90;;;-0.94;71.67;101634.38;2568351;30;137431;-41
2022/03/03 00:50:03;;;;;;;;;;;0.90;99.90;;;-0.97;72.66;101637.31;2568832;30;137891;-40
2022/03/03 00:52:31;;;;;;;;;;;0.80;99.90;;;-1.08;73.83;101635.44;2568033;30;137621;-41
2022/03/03 00:54:58;;;;;;;;;;;0.70;99.90;;;-1.12;75.06;101631.28;2567430;30;136891;-41
2022/03/03 00:57:26;;;;;;;;;;;0.70;99.90;;;-1.19;76.13;101636.28;2568495;30;137242;-40
2022/03/03 00:59:54;;;;;;;;;;;0.70;99.90;;;-1.26;75.97;101634.16;2568003;30;137246;-40
2022/03/03 01:02:22;;;;;;;;;;;0.60;99.90;;;-1.36;75.52;101634.84;2572712;30;139766;-39
2022/03/03 01:04:49;;;;;;;;;;;0.50;99.90;;;-1.42;75.64;101626.44;2568893;30;137130;-39
2022/03/03 01:07:17;;;;;;;;;;;0.40;99.90;;;-1.56;75.33;101624.78;2568718;30;138867;-40
2022/03/03 01:09:44;;;;;;;;;;;0.30;99.90;;;-1.58;75.23;101627.56;2569195;30;137156;-39
2022/03/03 01:12:12;;;;;;;;;;;0.30;99.90;;;-1.60;75.27;101632.16;2568563;30;138190;-39
2022/03/03 01:14:39;;;;;;;;;;;0.20;99.90;;;-1.64;75.86;101625.34;2567741;30;137129;-40
2022/03/03 01:17:13;;;;;;;;;;;0.20;99.90;;;-1.67;76.40;101634.44;2570486;30;138055;-39
2022/03/03 01:19:42;;;;;;;;;;;0.20;99.90;;;-1.73;77.48;101635.72;2572016;30;137059;-39
2022/03/03 01:22:09;;;;;;;;;;;0.10;99.90;;;-1.85;77.82;101636.63;2569136;30;138131;-41
2022/03/03 01:24:38;;;;;;;;;;;0.00;99.90;;;-1.85;77.29;101636.63;2569300;30;136646;-41
2022/03/03 01:27:05;;;;;;;;;;;0.00;99.90;;;-1.90;77.35;101636.13;2567532;30;139054;-39
2022/03/03 01:29:32;;;;;;;;;;;-0.10;99.90;;;-1.93;78.02;101633.66;2570247;30;137048;-39
2022/03/03 01:32:00;;;;;;;;;;;-0.10;99.90;;;-2.01;78.88;101628.88;2569689;30;138986;-39
2022/03/03 01:34:27;;;;;;;;;;;-0.10;99.90;;;-2.06;79.37;101625.66;2570845;30;137209;-41
2022/03/03 01:36:55;;;;;;;;;;;-0.20;99.90;;;-2.08;80.93;101624.94;2571844;30;138189;-39
2022/03/03 01:39:22;;;;;;;;;;;-0.20;99.90;;;-2.12;80.84;101621.59;2569955;30;137144;-40
2022/03/03 01:41:50;;;;;;;;;;;-0.30;99.90;;;-2.15;81.04;101626.31;2569522;30;138395;-39
2022/03/03 01:44:17;;;;;;;;;;;-0.30;99.90;;;-2.17;81.41;101616.56;2570608;30;137731;-40
2022/03/03 01:46:53;;;;;;;;;;;-0.30;99.90;;;-2.26;82.37;101609.22;2569801;30;138628;-39
2022/03/03 01:49:21;;;;;;;;;;;-0.40;99.90;;;-2.25;82.56;101610.94;2570011;30;136958;-41
2022/03/03 01:51:49;;;;;;;;;;;-0.40;99.90;;;-2.26;82.16;101608.34;2569188;30;137251;-39
2022/03/03 01:54:17;;;;;;;;;;;-0.40;99.90;;;-2.29;81.84;101612.13;2570011;30;136979;-41
2022/03/03 01:56:46;;;;;;;;;;;-0.40;99.90;;;-2.34;81.42;101608.91;2569271;30;138135;-39
2022/03/03 01:59:14;;;;;;;;;;;-0.50;99.90;;;-2.41;82.36;101607.63;2567829;30;138698;-39
2022/03/03 02:01:42;;;;;;;;;;;-0.50;99.90;;;-2.48;83.25;101610.72;2570400;30;138701;-39
2022/03/03 02:04:10;;;;;;;;;;;-0.60;99.90;;;-2.51;84.31;101610.94;2571459;30;137886;-39
2022/03/03 02:06:37;;;;;;;;;;;-0.60;99.90;;;-2.48;84.63;101612.56;2570535;30;138249;-40
2022/03/03 02:09:05;;;;;;;;;;;-0.60;99.90;;;-2.51;85.14;101608.28;2568900;30;136658;-39
2022/03/03 02:11:33;;;;;;;;;;;-0.60;99.90;;;-2.55;85.66;101612.13;2569932;30;138334;-39
2022/03/03 02:14:02;;;;;;;;;;;-0.70;99.90;;;-2.62;85.62;101610.84;2567927;30;136930;-39
2022/03/03 02:16:31;;;;;;;;;;;-0.70;99.90;;;-2.64;85.45;101602.09;2568528;30;139412;-42
2022/03/03 02:18:58;;;;;;;;;;;-0.80;99.90;;;-2.69;84.95;101597.06;2569637;30;136819;-42
2022/03/03 02:21:26;;;;;;;;;;;-0.80;99.90;;;-2.73;84.23;101600.03;2569085;30;139118;-42
2022/03/03 02:23:54;;;;;;;;;;;-0.80;99.90;;;-2.76;84.82;101587.78;2569239;30;137212;-42
2022/03/03 02:26:22;;;;;;;;;;;-0.90;99.90;;;-2.79;85.65;101586.16;2569748;30;138199;-42
2022/03/03 02:28:52;;;;;;;;;;;-0.90;99.90;;;-2.83;85.92;101589.13;2568116;30;137095;-42
2022/03/03 02:31:20;;;;;;;;;;;-0.90;99.90;;;-2.88;86.48;101578.78;2569625;30;139014;-42
2022/03/03 02:33:47;;;;;;;;;;;-1.00;99.90;;;-2.95;86.19;101582.81;2570725;30;136893;-42
2022/03/03 02:36:21;;;;;;;;;;;-1.10;99.90;;;-3.05;86.13;101578.13;2570562;30;139064;-42
2022/03/03 02:38:50;;;;;;;;;;;-1.10;99.90;;;-3.01;86.71;101580.59;2569987;30;138249;-42
2022/03/03 02:41:18;;;;;;;;;;;-1.10;99.90;;;-3.01;86.77;101580.59;2570031;30;138240;-42
2022/03/03 02:43:46;;;;;;;;;;;-1.10;99.90;;;-3.06;86.89;101576.41;2570068;30;137210;-42
2022/03/03 02:46:14;;;;;;;;;;;-1.20;99.90;;;-3.07;86.78;101576.50;2569746;30;139176;-42
2022/03/03 02:48:42;;;;;;;;;;;-1.20;99.90;;;-3.11;86.58;101575.00;2570543;30;136828;-42
2022/03/03 02:51:09;;;;;;;;;;;-1.20;99.90;;;-3.18;85.93;101574.59;2569839;30;137448;-43
2022/03/03 02:53:37;;;;;;;;;;;-1.30;99.90;;;-3.25;86.42;101578.63;2571944;30;137321;-42
2022/03/03 02:56:05;;;;;;;;;;;-1.30;99.90;;;-3.26;86.82;101568.91;2570022;30;138285;-42
2022/03/03 02:58:33;;;;;;;;;;;-1.40;99.90;;;-3.32;86.89;101557.69;2571169;30;137067;-42
2022/03/03 03:01:03;;;;;;;;;;;-1.40;99.90;;;-3.36;87.03;101561.53;2569920;30;138747;-42
2022/03/03 03:03:30;;;;;;;;;;;-1.40;99.90;;;-3.30;87.71;101567.41;2569929;30;136990;-40
2022/03/03 03:05:58;;;;;;;;;;;-1.40;99.90;;;-3.37;88.43;101553.59;2571795;30;137450;-40
2022/03/03 03:08:27;;;;;;;;;;;-1.40;99.90;;;-3.37;88.78;101564.28;2571756;30;138019;-39
2022/03/03 03:10:55;;;;;;;;;;;-1.50;99.90;;;-3.41;89.22;101554.78;2570283;30;138230;-40
2022/03/03 03:13:22;;;;;;;;;;;-1.50;99.90;;;-3.39;89.80;101561.75;2570740;30;138185;-42
2022/03/03 03:15:50;;;;;;;;;;;-1.50;99.90;;;-3.41;89.73;101558.31;2570192;30;138349;-39
2022/03/03 03:18:21;;;;;;;;;;;-1.50;99.90;;;-3.41;90.50;101554.78;2570052;30;137345;-39
2022/03/03 03:20:52;;;;;;;;;;;-1.50;99.90;;;-3.52;90.34;101544.81;2571983;30;138216;-41
2022/03/03 03:23:22;;;;;;;;;;;-1.50;99.90;;;-3.57;90.35;101546.94;2569983;30;137919;-42
2022/03/03 03:25:50;;;;;;;;;;;-1.60;99.90;;;-3.49;90.46;101549.94;2567514;30;137490;-41
2022/03/03 03:28:19;;;;;;;;;;;-1.60;99.90;;;-3.52;90.41;101548.34;2572214;30;137093;-41
2022/03/03 03:30:46;;;;;;;;;;;-1.60;99.90;;;-3.54;90.78;101554.75;2568781;30;138167;-42
2022/03/03 03:33:14;;;;;;;;;;;-1.60;99.90;;;-3.60;90.35;101542.66;2568995;30;138026;-42
2022/03/03 03:35:41;;;;;;;;;;;-1.70;99.90;;;-3.57;90.43;101552.28;2569739;30;138748;-43
2022/03/03 03:38:09;;;;;;;;;;;-1.70;99.90;;;-3.63;90.46;101548.19;2569249;30;137076;-39
2022/03/03 03:40:36;;;;;;;;;;;-1.70;99.90;;;-3.63;90.49;101541.06;2568381;30;138048;-39
2022/03/03 03:43:03;;;;;;;;;;;-1.70;99.90;;;-3.63;90.45;101551.75;2570908;30;137286;-43
2022/03/03 03:45:33;;;;;;;;;;;-1.70;99.90;;;-3.66;89.91;101541.28;2569930;30;138005;-40
2022/03/03 03:48:02;;;;;;;;;;;-1.70;99.90;;;-3.62;90.46;101544.56;2570635;30;136656;-42
2022/03/03 03:50:29;;;;;;;;;;;-1.70;99.90;;;-3.64;90.41;101546.50;2569536;30;137419;-42
2022/03/03 03:52:57;;;;;;;;;;;-1.80;99.90;;;-3.61;90.64;101540.94;2569637;30;137820;-42
2022/03/03 03:55:24;;;;;;;;;;;-1.70;99.90;;;-3.59;91.06;101543.53;2570365;30;137406;-44
2022/03/03 03:57:52;;;;;;;;;;;-1.70;99.90;;;-3.63;91.30;101542.88;2569352;30;136746;-42
2022/03/03 04:00:19;;;;;;;;;;;-1.80;99.90;;;-3.68;91.81;101535.19;2568710;30;139731;-42
2022/03/03 04:02:46;;;;;;;;;;;-1.80;99.90;;;-3.66;92.02;101533.28;2572599;30;137696;-45
2022/03/03 04:05:15;;;;;;;;;;;-1.80;99.90;;;-3.63;91.72;101533.06;2570461;30;138092;-41
2022/03/03 04:07:42;;;;;;;;;;;-1.80;99.90;;;-3.65;91.76;101518.09;2570498;30;137087;-42
2022/03/03 04:10:11;;;;;;;;;;;-1.80;99.90;;;-3.70;91.54;101520.22;2570453;30;138453;-42
2022/03/03 04:12:39;;;;;;;;;;;-1.80;99.90;;;-3.80;90.90;101525.31;2569517;30;137837;-42
2022/03/03 04:15:09;;;;;;;;;;;-1.90;99.90;;;-3.88;91.00;101531.16;2569206;30;138405;-39
2022/03/03 04:17:37;;;;;;;;;;;-1.90;99.90;;;-3.87;91.42;101535.53;2569697;30;137679;-39
2022/03/03 04:20:06;;;;;;;;;;;-1.90;99.90;;;-3.88;91.27;101530.31;2572345;30;137211;-42
2022/03/03 04:22:34;;;;;;;;;;;-2.00;99.90;;;-3.87;91.85;101524.03;2571784;30;137892;-42
2022/03/03 04:25:03;;;;;;;;;;;-2.00;99.90;;;-3.92;91.80;101526.97;2568383;30;138225;-42
2022/03/03 04:27:31;;;;;;;;;;;-2.00;99.90;;;-3.97;92.36;101519.31;2569026;30;137670;-42
2022/03/03 04:29:59;;;;;;;;;;;-2.00;99.90;;;-3.99;92.76;101507.84;2570415;30;138260;-42
2022/03/03 04:32:26;;;;;;;;;;;-2.10;99.90;;;-4.00;92.60;101508.81;2571309;30;136777;-41
2022/03/03 04:34:53;;;;;;;;;;;-2.10;99.90;;;-4.06;92.21;101498.56;2570200;30;139013;-42
2022/03/03 04:37:21;;;;;;;;;;;-2.10;99.90;;;-4.15;91.72;101505.34;2568454;30;136779;-42
2022/03/03 04:39:48;;;;;;;;;;;-2.20;99.90;;;-4.16;92.32;101503.63;2570689;30;138998;-43
2022/03/03 04:42:16;;;;;;;;;;;-2.20;99.90;;;-4.15;92.46;101494.69;2569541;30;137829;-42
2022/03/03 04:44:43;;;;;;;;;;;-2.20;99.90;;;-4.14;92.89;101495.53;2569399;30;136866;-42
2022/03/03 04:47:10;;;;;;;;;;;-2.20;99.90;;;-4.13;93.57;101489.25;2570840;30;136920;-44
2022/03/03 04:49:38;;;;;;;;;;;-2.20;99.90;;;-4.12;94.21;101489.13;2570584;30;139222;-42
2022/03/03 04:52:06;;;;;;;;;;;-2.20;99.90;;;-4.17;93.85;101479.75;2568480;30;137227;-42
2022/03/03 04:54:34;;;;;;;;;;;-2.20;99.90;;;-4.22;92.98;101474.72;2570534;30;138352;-42
2022/03/03 04:57:01;;;;;;;;;;;-2.30;99.90;;;-4.29;93.61;101479.59;2568558;30;137757;-43
2022/03/03 04:59:29;;;;;;;;;;;-2.30;99.90;;;-4.28;94.26;101473.28;2570461;30;138302;-41
2022/03/03 05:01:56;;;;;;;;;;;-2.30;99.90;;;-4.26;94.39;101475.88;2567754;30;138074;-41
2022/03/03 05:04:24;;;;;;;;;;;-2.30;99.90;;;-4.30;94.38;101469.88;2569694;30;137485;-42
2022/03/03 05:06:51;;;;;;;;;;;-2.40;99.90;;;-4.33;94.07;101464.75;2568279;30;137308;-42
2022/03/03 05:09:18;;;;;;;;;;;-2.40;99.90;;;-4.35;93.70;101458.66;2569847;30;138533;-41
2022/03/03 05:11:46;;;;;;;;;;;-2.40;99.90;;;-4.40;94.04;101466.13;2570048;30;137898;-45
2022/03/03 05:14:13;;;;;;;;;;;-2.40;99.90;;;-4.53;94.36;101452.72;2571625;30;138499;-41
2022/03/03 05:16:40;;;;;;;;;;;-2.40;99.90;;;-4.39;94.94;101471.31;2571473;30;137345;-42
2022/03/03 05:19:08;;;;;;;;;;;-2.40;99.90;;;-4.39;95.44;101470.47;2568858;30;138260;-42
2022/03/03 05:21:35;;;;;;;;;;;-2.50;99.90;;;-4.42;95.82;101476.00;2569131;30;136983;-42
2022/03/03 05:24:02;;;;;;;;;;;-2.50;99.90;;;-4.45;96.22;101474.38;2569303;30;137382;-44
2022/03/03 05:26:30;;;;;;;;;;;-2.50;99.90;;;-4.48;96.28;101467.47;2568866;30;137281;-42
2022/03/03 05:28:58;;;;;;;;;;;-2.50;99.90;;;-4.51;96.56;101473.00;2571290;30;138220;-42
2022/03/03 05:31:25;;;;;;;;;;;-2.60;99.90;;;-4.51;96.77;101473.00;2569998;30;136968;-41
2022/03/03 05:33:53;;;;;;;;;;;-2.60;99.90;;;-4.51;96.61;101474.78;2569241;30;138198;-47
2022/03/03 05:36:24;;;;;;;;;;;-2.60;99.90;;;-4.61;96.46;101466.53;2569458;30;137121;-42
2022/03/03 05:38:56;;;;;;;;;;;-2.60;99.90;;;-4.57;96.01;101477.84;2570299;30;138291;-42
2022/03/03 05:41:24;;;;;;;;;;;-2.60;99.90;;;-4.62;95.73;101475.47;2570224;30;137132;-42
2022/03/03 05:43:51;;;;;;;;;;;-2.70;99.90;;;-4.62;95.13;101488.78;2566936;30;138447;-41
2022/03/03 05:46:19;;;;;;;;;;;-2.70;99.90;;;-4.74;94.81;101473.59;2572217;30;136976;-42
2022/03/03 05:48:48;;;;;;;;;;;-2.70;99.90;;;-4.71;95.27;101490.22;2570781;30;138638;-47
2022/03/03 05:51:17;;;;;;;;;;;-2.80;99.90;;;-4.70;95.63;101478.63;2569617;30;137264;-44
2022/03/03 05:53:45;;;;;;;;;;;-2.80;99.90;;;-4.74;95.80;101469.13;2568125;30;138551;-42
2022/03/03 05:56:16;;;;;;;;;;;-2.80;99.90;;;-4.70;96.20;101481.28;2570729;30;137581;-42
2022/03/03 05:58:49;;;;;;;;;;;-2.80;99.90;;;-4.72;96.38;101474.34;2571725;30;138162;-44
2022/03/03 06:01:17;;;;;;;;;;;-2.80;99.90;;;-4.74;96.72;101478.94;2569851;30;136843;-44
2022/03/03 06:03:50;;;;;;;;;;;-2.80;99.90;;;-4.77;97.06;101478.16;2569409;30;138480;-42
2022/03/03 06:06:19;;;;;;;;;;;-2.80;99.90;;;-4.80;97.45;101477.50;2571848;30;138099;-42
2022/03/03 06:09:17;;;;;;;;;;;-2.90;99.90;;;-4.83;97.80;101485.69;2567968;30;137102;-42
2022/03/03 06:12:08;;;;;;;;;;;-2.90;99.90;;;-4.88;98.03;101491.28;2568928;30;137807;-41
2022/03/03 06:14:41;;;;;;;;;;;-2.90;99.90;;;-4.87;98.15;101492.16;2569909;30;138328;-41
2022/03/03 06:17:09;;;;;;;;;;;-2.90;99.90;;;-4.92;98.33;101492.41;2568050;30;137379;-41
2022/03/03 06:19:42;;;;;;;;;;;-3.00;99.90;;;-4.93;98.53;101499.53;2569976;30;138380;-42
2022/03/03 06:22:13;;;;;;;;;;;-3.00;99.90;;;-4.95;98.73;101495.28;2569057;30;136781;-44
2022/03/03 06:24:40;;;;;;;;;;;-3.00;99.90;;;-4.94;98.24;101492.50;2570252;30;137378;-40
2022/03/03 06:27:08;;;;;;;;;;;-3.00;99.90;;;-4.94;97.71;101497.81;2572954;30;137089;-42
2022/03/03 06:29:38;;;;;;;;;;;-3.00;99.90;;;-4.92;97.50;101500.41;2569107;30;138137;-42
2022/03/03 06:32:06;;;;;;;;;;;-3.00;99.90;;;-4.88;97.38;101499.25;2571487;30;137075;-43
2022/03/03 06:34:34;;;;;;;;;;;-3.00;99.90;;;-4.83;97.22;101499.81;2569947;30;138098;-43
2022/03/03 06:37:02;;;;;;;;;;;-2.90;99.90;;;-4.81;97.73;101505.06;2570376;30;137014;-39
2022/03/03 06:39:29;;;;;;;;;;;-2.90;99.90;;;-4.74;98.19;101508.22;2568628;30;138375;-42
2022/03/03 06:41:57;;;;;;;;;;;-2.90;99.90;;;-4.67;98.27;101504.22;2571579;30;136865;-42
2022/03/03 06:44:24;;;;;;;;;;;-2.80;99.90;;;-4.64;98.14;101504.00;2569162;30;139210;-42
2022/03/03 06:46:52;;;;;;;;;;;-2.80;99.90;;;-4.62;97.81;101497.66;2567110;30;137323;-42
2022/03/03 06:49:19;;;;;;;;;;;-2.80;99.90;;;-4.55;97.49;101495.44;2570919;30;138404;-41
2022/03/03 06:51:49;;;;;;;;;;;-2.70;99.90;;;-4.53;97.23;101487.34;2569668;30;137136;-41
2022/03/03 06:54:19;;;;;;;;;;;-2.70;99.90;;;-4.46;97.04;101498.47;2569860;30;138523;-41
2022/03/03 06:56:47;;;;;;;;;;;-2.70;99.90;;;-4.39;96.65;101499.78;2570676;30;137043;-43
2022/03/03 06:59:21;;;;;;;;;;;-2.60;99.90;;;-4.36;96.66;101497.81;2569775;30;138267;-42
2022/03/03 07:01:50;;;;;;;;;;;-2.60;99.90;;;-4.30;97.41;101491.19;2570128;30;136977;-40
2022/03/03 13:04:59;;;;;;;;;;;-2.50;99.90;;;12.26;29.23;101336.66;2567265;30;137317;-41
2022/03/03 13:07:39;;;;;;;;;;;13.70;55.60;;;12.36;28.67;101358.97;2568939;30;137123;-41
2022/03/03 13:10:07;;;;;;;;;;;13.60;54.10;;;12.43;28.04;101356.22;2567986;30;138582;-41
2022/03/03 13:12:44;;;;;;;;;;;13.60;53.60;;;12.55;27.82;101350.13;2569127;30;136988;-41
2022/03/03 13:15:12;;;;;;;;;;;13.70;54.00;;;12.52;26.72;101346.75;2569474;30;138683;-41
2022/03/03 13:18:03;;;;;;;;;;;13.70;51.40;;;12.46;27.29;101344.00;2568561;30;137049;-41
2022/03/03 13:20:37;;;;;;;;;;;13.70;51.10;;;12.41;27.47;101341.91;2568040;30;139107;-41
2022/03/03 13:23:08;;;;;;;;;;;13.70;52.50;;;12.46;26.21;101338.53;2568447;30;136930;-41
2022/03/03 13:25:36;;;;;;;;;;;13.60;50.50;;;12.60;29.03;101342.09;2567890;30;138253;-41
2022/03/03 13:28:04;;;;;;;;;;;13.70;54.60;;;12.63;28.13;101336.19;2568037;30;137551;-41
2022/03/03 13:30:32;;;;;;;;;;;13.80;53.10;;;12.63;28.50;101330.72;2566945;30;139659;-41
2022/03/03 13:33:00;;;;;;;;;;;13.80;53.60;;;12.74;29.03;101331.97;2569271;30;136973;-41
2022/03/03 13:35:39;;;;;;;;;;;13.90;54.50;;;12.85;28.16;101330.47;2567901;30;137235;-41
2022/03/03 13:38:08;;;;;;;;;;;13.90;52.30;;;12.80;28.60;101337.44;2568583;30;136931;-41
2022/03/03 13:40:38;;;;;;;;;;;14.00;53.90;;;12.79;24.52;101323.94;2567409;30;137466;-41
2022/03/03 13:43:05;;;;;;;;;;;14.00;48.40;;;12.91;26.66;101324.97;2568610;30;137115;-41
2022/03/03 13:45:38;;;;;;;;;;;14.00;50.60;;;13.05;28.18;101325.75;2569786;30;138086;-41
2022/03/03 13:48:13;;;;;;;;;;;14.10;52.80;;;13.07;27.10;101329.13;2568658;30;137746;-41
2022/03/03 13:50:43;;;;;;;;;;;14.20;51.20;;;13.13;27.63;101315.59;2565604;30;138298;-41
2022/03/03 13:53:18;;;;;;;;;;;14.20;52.10;;;13.21;27.65;101320.81;2567851;30;138501;-41
2022/03/03 13:55:46;;;;;;;;;;;14.30;51.90;;;13.27;26.55;101316.38;2567356;30;139489;-41
2022/03/03 13:58:24;;;;;;;;;;;14.40;50.80;;;13.35;27.38;101322.44;2567468;30;137223;-40
2022/03/03 14:00:54;;;;;;;;;;;14.40;51.70;;;13.38;25.20;101322.00;2569386;30;138322;-41
2022/03/03 14:03:43;;;;;;;;;;;14.50;49.60;;;13.50;25.08;101313.09;2567207;30;137236;-41
2022/03/03 14:06:10;;;;;;;;;;;14.50;48.00;;;13.54;24.71;101311.63;2568831;30;139151;-41
2022/03/03 14:08:40;;;;;;;;;;;14.60;48.30;;;13.64;26.64;101316.59;2568111;30;137887;-41
2022/03/03 14:11:23;;;;;;;;;;;14.70;50.50;;;13.70;26.13;101312.16;2566901;30;139548;-41
2022/03/03 14:14:01;;;;;;;;;;;14.70;51.00;;;13.60;25.75;101313.50;2568209;30;136968;-41
2022/03/03 14:16:35;;;;;;;;;;;14.70;49.90;;;13.36;23.71;101318.66;2568194;30;137319;-41
2022/03/03 14:19:03;;;;;;;;;;;14.50;46.20;;;13.43;24.15;101317.81;2567092;30;137246;-41
2022/03/03 14:21:30;;;;;;;;;;;14.50;46.80;;;13.42;28.69;101316.94;2567273;30;137481;-41
2022/03/03 14:23:58;;;;;;;;;;;;;;;13.47;28.95;101321.78;2568224;30;137284;-41
2022/03/03 14:26:46;;;;;;;;;;;14.60;52.90;;;13.51;26.87;101310.16;2567412;30;137479;-41
2022/03/03 14:29:14;;;;;;;;;;;14.60;50.30;;;13.48;26.79;101313.34;2568307;30;136749;-41
2022/03/03 14:31:41;;;;;;;;;;;14.60;50.30;;;13.39;25.04;101320.09;2567838;30;138171;-41
2022/03/03 14:34:09;;;;;;;;;;;14.60;47.60;;;13.36;25.39;101307.69;2568352;30;136772;-41
2022/03/03 14:36:42;;;;;;;;;;;14.50;48.50;;;13.23;28.50;101315.97;2568448;30;137283;-41
2022/03/03 14:39:11;;;;;;;;;;;14.40;51.20;;;13.16;29.04;101310.53;2570248;30;136588;-41
2022/03/03 14:41:40;;;;;;;;;;;14.40;52.70;;;13.13;29.39;101308.25;2568316;30;136792;-41
2022/03/03 14:44:10;;;;;;;;;;;14.40;53.10;;;13.16;27.63;101310.53;2568795;30;136663;-41
2022/03/03 14:46:38;;;;;;;;;;;14.30;51.30;;;12.97;30.81;101301.31;2566152;30;139274;-41
2022/03/03 14:49:07;;;;;;;;;;;14.20;54.20;;;12.87;27.65;101306.44;2569809;30;136870;-41
2022/03/03 14:51:35;;;;;;;;;;;14.20;50.70;;;12.93;28.96;101308.31;2569497;30;138086;-41
2022/03/03 14:54:04;;;;;;;;;;;14.10;52.50;;;12.98;28.57;101308.50;2569522;30;137064;-41
2022/03/03 14:56:31;;;;;;;;;;;14.20;51.60;;;13.03;28.97;101314.19;2570351;30;138223;-41
2022/03/03 14:58:59;;;;;;;;;;;14.10;52.50;;;12.86;26.62;101288.31;2568625;30;137883;-41
2022/03/03 15:01:27;;;;;;;;;;;14.20;49.60;;;12.89;26.88;101309.78;2568354;30;138280;-41
2022/03/03 15:04:02;;;;;;;;;;;14.10;49.80;;;12.76;27.66;101305.22;2569081;30;137181;-41
2022/03/03 15:06:30;;;;;;;;;;;14.10;51.30;;;12.77;28.28;101305.00;2568923;30;137130;-42
2022/03/03 15:08:59;;;;;;;;;;;14.00;51.10;;;12.70;28.77;101301.41;2569470;30;137207;-41
2022/03/03 15:11:27;;;;;;;;;;;14.00;51.30;;;12.64;30.64;101299.56;2568919;30;138192;-40
2022/03/03 15:13:55;;;;;;;;;;;13.90;53.80;;;12.60;29.34;101307.38;2567122;30;137245;-41
2022/03/03 15:16:22;;;;;;;;;;;13.90;52.30;;;12.47;30.72;101299.19;2569136;30;138479;-41
2022/03/03 15:18:50;;;;;;;;;;;13.80;54.20;;;12.38;31.83;101304.03;2568548;30;137054;-41
2022/03/03 15:21:17;;;;;;;;;;;13.70;55.50;;;12.27;32.43;101299.22;2568596;30;136789;-41
2022/03/03 15:23:45;;;;;;;;;;;13.60;55.80;;;12.05;31.49;101297.53;2568835;30;137256;-41
2022/03/03 15:26:12;;;;;;;;;;;13.50;54.70;;;11.98;33.03;101296.66;2569526;30;138443;-41
2022/03/03 15:28:39;;;;;;;;;;;13.40;56.50;;;11.84;31.54;101295.81;2567210;30;137637;-41
2022/03/03 15:31:07;;;;;;;;;;;13.20;54.80;;;11.74;32.01;101295.41;2568164;30;138298;-41
2022/03/03 15:39:06;;;;;;;;;;;13.00;56.70;;;11.57;33.55;101295.78;2569141;30;137120;-41
2022/03/03 15:41:33;;;;;;;;;;;12.90;57.00;;;11.54;34.02;101290.75;2567771;30;138959;-41
2022/03/03 15:44:01;;;;;;;;;;;12.90;57.60;;;11.45;36.14;101289.25;2569278;30;136815;-41
2022/03/03 15:46:28;;;;;;;;;;;12.80;59.70;;;11.40;34.44;101286.28;2569464;30;137823;-41
2022/03/03 15:48:56;;;;;;;;;;;12.80;58.10;;;11.35;35.57;101276.81;2568723;30;137164;-41
2022/03/03 15:51:24;;;;;;;;;;;12.70;59.20;;;11.29;35.84;101283.13;2566224;30;136651;-41
2022/03/03 15:53:53;;;;;;;;;;;12.70;59.60;;;11.29;34.24;101280.38;2567123;30;137092;-41
2022/03/03 15:56:21;;;;;;;;;;;12.60;57.70;;;11.24;34.68;101282.91;2569045;30;138197;-41
2022/03/03 15:58:48;;;;;;;;;;;12.60;58.20;;;11.18;33.75;101275.53;2569302;30;137271;-43
2022/03/03 16:01:16;;;;;;;;;;;12.50;57.20;;;11.11;35.66;101280.97;2569945;30;137766;-40
2022/03/03 16:03:44;;;;;;;;;;;12.50;59.30;;;11.07;35.85;101286.00;2568937;30;137176;-41
2022/03/03 16:06:11;;;;;;;;;;;12.50;59.60;;;11.00;36.26;101290.59;2567770;30;138322;-41
2022/03/03 16:08:39;;;;;;;;;;;12.40;60.30;;;10.90;36.32;101287.41;2569100;30;138088;-42
2022/03/03 16:11:06;;;;;;;;;;;12.30;60.00;;;10.87;36.62;101285.06;2568497;30;138234;-41
2022/03/03 16:13:34;;;;;;;;;;;12.30;60.20;;;10.77;38.33;101289.03;2567879;30;137222;-41
2022/03/03 16:16:01;;;;;;;;;;;12.20;62.60;;;10.70;38.21;101290.88;2568605;30;137177;-41
2022/03/03 16:18:29;;;;;;;;;;;12.10;62.50;;;10.61;38.67;101292.09;2568995;30;136805;-41
2022/03/03 16:20:56;;;;;;;;;;;12.00;63.00;;;10.46;38.34;101303.97;2569378;30;136802;-41
2022/03/03 16:23:25;;;;;;;;;;;11.90;62.30;;;10.38;39.24;101301.38;2567615;30;138255;-41
2022/03/03 16:26:13;;;;;;;;;;;11.80;63.60;;;10.22;38.76;101305.25;2568099;30;137154;-41
2022/03/03 16:28:41;;;;;;;;;;;11.70;63.10;;;10.11;38.64;101303.03;2568634;30;137334;-41
2022/03/03 16:31:47;;;;;;;;;;;11.60;62.90;;;9.99;39.65;101303.59;2568433;30;138449;-41
2022/03/03 16:34:14;;;;;;;;;;;11.50;63.80;;;9.90;39.84;101302.88;2568742;30;137920;-41
2022/03/03 16:36:42;;;;;;;;;;;11.40;64.40;;;9.76;39.22;101310.09;2569366;30;138191;-41
2022/03/03 16:39:10;;;;;;;;;;;11.20;63.70;;;9.70;40.10;101304.59;2567217;30;137383;-41
2022/03/03 16:41:38;;;;;;;;;;;11.20;64.90;;;9.60;39.98;101307.63;2568386;30;138297;-41
2022/03/03 16:44:06;;;;;;;;;;;11.00;64.40;;;9.49;39.56;101317.16;2569229;30;136898;-41
2022/03/03 16:46:34;;;;;;;;;;;11.00;63.80;;;9.43;39.28;101313.34;2567026;30;137883;-41
2022/03/03 16:49:01;;;;;;;;;;;10.90;63.80;;;9.33;40.21;101318.25;2569198;30;136895;-41
2022/03/03 16:51:32;;;;;;;;;;;10.80;64.80;;;9.20;39.31;101311.63;2568193;30;137566;-41
2022/03/03 16:54:01;;;;;;;;;;;10.70;63.50;;;9.13;40.66;101315.28;2567185;30;137889;-41
2022/03/03 16:56:28;;;;;;;;;;;10.60;65.20;;;9.01;40.54;101321.22;2568396;30;138249;-40
2022/03/03 16:58:56;;;;;;;;;;;10.50;64.90;;;8.88;40.25;101315.59;2567180;30;136780;-41
2022/03/03 17:01:23;;;;;;;;;;;10.40;64.60;;;8.85;40.16;101313.25;2567877;30;138609;-41
2022/03/03 17:03:51;;;;;;;;;;;10.30;64.50;;;8.73;40.64;101324.59;2568561;30;137023;-41
2022/03/03 17:06:18;;;;;;;;;;;10.20;65.10;;;8.62;40.71;101323.22;2566009;30;138378;-41
2022/03/03 17:08:47;;;;;;;;;;;10.20;65.00;;;8.52;41.42;101324.53;2568074;30;136831;-41
2022/03/03 17:11:14;;;;;;;;;;;10.00;66.10;;;8.41;41.27;101325.81;2568597;30;137633;-41
2022/03/03 17:13:43;;;;;;;;;;;9.90;66.30;;;8.26;42.53;101325.78;2569188;30;137131;-41
2022/03/03 17:16:12;;;;;;;;;;;9.80;67.10;;;8.18;41.72;101341.13;2569291;30;138384;-41
2022/03/03 17:18:40;;;;;;;;;;;9.70;66.40;;;8.02;43.44;101333.97;2568156;30;137594;-41